sensor_id;sensor_type;location;lat;lon;timestamp;temperature;humidity
7002;DHT22;3541;53.230;10.518;2023-08-06T00:00:53;18.60;99.90
7002;DHT22;3541;53.230;10.518;2023-08-06T00:03:19;18.50;99.90
7002;DHT22;3541;53.230;10.518;2023-08-06T00:05:47;18.50;99.90
7002;DHT22;3541;53.230;10.518;2023-08-06T00:08:14;18.50;99.90
7002;DHT22;3541;53.230;10.518;2023-08-06T00:10:40;18.40;99.90
7002;DHT22;3541;53.230;10.518;2023-08-06T00:13:07;18.50;99.90
7002;DHT22;3541;53.230;10.518;2023-08-06T00:15:34;18.50;99.90
7002;DHT22;3541;53.230;10.518;2023-08-06T00:18:00;18.40;99.90
7002;DHT22;3541;53.230;10.518;2023-08-06T00:20:27;18.40;99.90
7002;DHT22;3541;53.230;10.518;2023-08-06T00:22:55;18.30;99.90
7002;DHT22;3541;53.230;10.518;2023-08-06T00:25:21;18.30;99.90
7002;DHT22;3541;53.230;10.518;2023-08-06T00:27:48;18.40;99.90
7002;DHT22;3541;53.230;10.518;2023-08-06T00:30:14;18.40;99.90
7002;DHT22;3541;53.230;10.518;2023-08-06T00:32:41;18.30;99.90
7002;DHT22;3541;53.230;10.518;2023-08-06T00:35:08;18.30;99.90
7002;DHT22;3541;53.230;10.518;2023-08-06T00:37:34;18.30;99.90
7002;DHT22;3541;53.230;10.518;2023-08-06T00:40:03;18.30;99.90
7002;DHT22;3541;53.230;10.518;2023-08-06T00:42:29;18.30;99.90
7002;DHT22;3541;53.230;10.518;2023-08-06T00:44:56;18.30;99.90
7002;DHT22;3541;53.230;10.518;2023-08-06T00:47:23;18.20;99.90
7002;DHT22;3541;53.230;10.518;2023-08-06T00:49:50;18.20;99.90
7002;DHT22;3541;53.230;10.518;2023-08-06T00:52:17;18.30;99.90
7002;DHT22;3541;53.230;10.518;2023-08-06T00:54:44;18.20;99.90
7002;DHT22;3541;53.230;10.518;2023-08-06T00:57:12;18.10;99.90
7002;DHT22;3541;53.230;10.518;2023-08-06T00:59:39;18.10;99.90
7002;DHT22;3541;53.230;10.518;2023-08-06T01:02:06;18.00;99.90
7002;DHT22;3541;53.230;10.518;2023-08-06T01:04:33;18.00;99.90
7002;DHT22;3541;53.230;10.518;2023-08-06T01:07:06;18.00;99.90
7002;DHT22;3541;53.230;10.518;2023-08-06T01:09:44;18.00;99.90
7002;DHT22;3541;53.230;10.518;2023-08-06T01:12:22;18.00;99.90
7002;DHT22;3541;53.230;10.518;2023-08-06T01:15:04;18.00;99.90
7002;DHT22;3541;53.230;10.518;2023-08-06T01:17:34;18.10;99.90
7002;DHT22;3541;53.230;10.518;2023-08-06T01:20:01;18.10;99.90
7002;DHT22;3541;53.230;10.518;2023-08-06T01:22:30;18.10;99.90
7002;DHT22;3541;53.230;10.518;2023-08-06T01:24:57;18.10;99.90
7002;DHT22;3541;53.230;10.518;2023-08-06T01:27:28;18.00;99.90
7002;DHT22;3541;53.230;10.518;2023-08-06T01:30:02;18.00;99.90
7002;DHT22;3541;53.230;10.518;2023-08-06T01:32:32;18.00;99.90
7002;DHT22;3541;53.230;10.518;2023-08-06T01:35:00;17.90;99.90
7002;DHT22;3541;53.230;10.518;2023-08-06T01:37:30;18.00;99.90
7002;DHT22;3541;53.230;10.518;2023-08-06T01:39:57;18.00;99.90
7002;DHT22;3541;53.230;10.518;2023-08-06T01:42:24;18.00;99.90
7002;DHT22;3541;53.230;10.518;2023-08-06T01:44:50;18.00;99.90
7002;DHT22;3541;53.230;10.518;2023-08-06T01:47:17;17.90;99.90
7002;DHT22;3541;53.230;10.518;2023-08-06T01:49:43;17.90;99.90
7002;DHT22;3541;53.230;10.518;2023-08-06T01:52:10;17.90;99.90
7002;DHT22;3541;53.230;10.518;2023-08-06T01:54:38;17.90;99.90
7002;DHT22;3541;53.230;10.518;2023-08-06T01:57:05;18.00;99.90
7002;DHT22;3541;53.230;10.518;2023-08-06T01:59:32;18.00;99.90
7002;DHT22;3541;53.230;10.518;2023-08-06T02:01:59;17.90;99.90
7002;DHT22;3541;53.230;10.518;2023-08-06T02:04:25;17.90;99.90
7002;DHT22;3541;53.230;10.518;2023-08-06T02:06:52;17.90;99.90
7002;DHT22;3541;53.230;10.518;2023-08-06T02:09:18;17.80;99.90
7002;DHT22;3541;53.230;10.518;2023-08-06T02:11:46;17.90;99.90
7002;DHT22;3541;53.230;10.518;2023-08-06T02:14:13;17.80;99.90
7002;DHT22;3541;53.230;10.518;2023-08-06T02:16:39;17.80;99.90
7002;DHT22;3541;53.230;10.518;2023-08-06T02:19:06;17.70;99.90
7002;DHT22;3541;53.230;10.518;2023-08-06T02:21:33;17.80;99.90
7002;DHT22;3541;53.230;10.518;2023-08-06T02:23:59;17.80;99.90
7002;DHT22;3541;53.230;10.518;2023-08-06T02:26:26;17.70;99.90
7002;DHT22;3541;53.230;10.518;2023-08-06T02:28:54;17.70;99.90
7002;DHT22;3541;53.230;10.518;2023-08-06T02:31:20;17.70;99.90
7002;DHT22;3541;53.230;10.518;2023-08-06T02:33:47;17.70;99.90
7002;DHT22;3541;53.230;10.518;2023-08-06T02:36:14;17.70;99.90
7002;DHT22;3541;53.230;10.518;2023-08-06T02:38:40;17.70;99.90
7002;DHT22;3541;53.230;10.518;2023-08-06T02:41:07;17.70;99.90
7002;DHT22;3541;53.230;10.518;2023-08-06T02:43:33;17.70;99.90
7002;DHT22;3541;53.230;10.518;2023-08-06T02:46:01;17.70;99.90
7002;DHT22;3541;53.230;10.518;2023-08-06T02:48:28;17.70;99.90
7002;DHT22;3541;53.230;10.518;2023-08-06T02:50:57;17.70;99.90
7002;DHT22;3541;53.230;10.518;2023-08-06T02:53:24;17.70;99.90
7002;DHT22;3541;53.230;10.518;2023-08-06T02:55:51;17.70;99.90
7002;DHT22;3541;53.230;10.518;2023-08-06T02:58:18;17.60;99.90
7002;DHT22;3541;53.230;10.518;2023-08-06T03:00:58;17.60;99.90
7002;DHT22;3541;53.230;10.518;2023-08-06T03:03:27;17.60;99.90
7002;DHT22;3541;53.230;10.518;2023-08-06T03:05:53;17.60;99.90
7002;DHT22;3541;53.230;10.518;2023-08-06T03:08:20;17.60;99.90
7002;DHT22;3541;53.230;10.518;2023-08-06T03:10:48;17.60;99.90
7002;DHT22;3541;53.230;10.518;2023-08-06T03:13:15;17.60;99.90
7002;DHT22;3541;53.230;10.518;2023-08-06T03:15:41;17.40;99.90
7002;DHT22;3541;53.230;10.518;2023-08-06T03:18:08;17.50;99.90
7002;DHT22;3541;53.230;10.518;2023-08-06T03:20:36;17.50;99.90
7002;DHT22;3541;53.230;10.518;2023-08-06T03:23:02;17.50;99.90
7002;DHT22;3541;53.230;10.518;2023-08-06T03:25:29;17.40;99.90
7002;DHT22;3541;53.230;10.518;2023-08-06T03:27:55;17.40;99.90
7002;DHT22;3541;53.230;10.518;2023-08-06T03:30:22;17.40;99.90
7002;DHT22;3541;53.230;10.518;2023-08-06T03:32:48;17.40;99.90
7002;DHT22;3541;53.230;10.518;2023-08-06T03:35:15;17.40;99.90
7002;DHT22;3541;53.230;10.518;2023-08-06T03:37:43;17.40;99.90
7002;DHT22;3541;53.230;10.518;2023-08-06T03:40:10;17.40;99.90
7002;DHT22;3541;53.230;10.518;2023-08-06T03:42:37;17.40;99.90
7002;DHT22;3541;53.230;10.518;2023-08-06T03:45:04;17.40;99.90
7002;DHT22;3541;53.230;10.518;2023-08-06T03:47:31;17.40;99.90
7002;DHT22;3541;53.230;10.518;2023-08-06T03:49:57;17.30;99.90
7002;DHT22;3541;53.230;10.518;2023-08-06T03:52:24;17.20;99.90
7002;DHT22;3541;53.230;10.518;2023-08-06T03:54:52;17.30;99.90
7002;DHT22;3541;53.230;10.518;2023-08-06T03:57:19;17.30;99.90
7002;DHT22;3541;53.230;10.518;2023-08-06T03:59:45;17.30;99.90
7002;DHT22;3541;53.230;10.518;2023-08-06T04:02:12;17.30;99.90
7002;DHT22;3541;53.230;10.518;2023-08-06T04:04:38;17.20;99.90
7002;DHT22;3541;53.230;10.518;2023-08-06T04:07:05;17.20;99.90
7002;DHT22;3541;53.230;10.518;2023-08-06T04:09:32;17.20;99.90
7002;DHT22;3541;53.230;10.518;2023-08-06T04:12:00;17.10;99.90
7002;DHT22;3541;53.230;10.518;2023-08-06T04:14:28;17.20;99.90
7002;DHT22;3541;53.230;10.518;2023-08-06T04:16:54;17.20;99.90
7002;DHT22;3541;53.230;10.518;2023-08-06T04:19:21;17.20;99.90
7002;DHT22;3541;53.230;10.518;2023-08-06T04:21:47;17.20;99.90
7002;DHT22;3541;53.230;10.518;2023-08-06T04:24:14;17.10;99.90
7002;DHT22;3541;53.230;10.518;2023-08-06T04:26:41;17.10;99.90
7002;DHT22;3541;53.230;10.518;2023-08-06T04:29:08;17.10;99.90
7002;DHT22;3541;53.230;10.518;2023-08-06T04:31:35;17.10;99.90
7002;DHT22;3541;53.230;10.518;2023-08-06T04:34:02;17.10;99.90
7002;DHT22;3541;53.230;10.518;2023-08-06T04:36:28;17.10;99.90
7002;DHT22;3541;53.230;10.518;2023-08-06T04:38:55;17.10;99.90
7002;DHT22;3541;53.230;10.518;2023-08-06T04:41:21;17.10;99.90
7002;DHT22;3541;53.230;10.518;2023-08-06T04:43:48;17.10;99.90
7002;DHT22;3541;53.230;10.518;2023-08-06T04:46:16;17.10;99.90
7002;DHT22;3541;53.230;10.518;2023-08-06T04:48:42;17.10;99.90
7002;DHT22;3541;53.230;10.518;2023-08-06T04:51:09;17.10;99.90
7002;DHT22;3541;53.230;10.518;2023-08-06T04:53:35;17.10;99.90
7002;DHT22;3541;53.230;10.518;2023-08-06T04:56:03;17.10;99.90
7002;DHT22;3541;53.230;10.518;2023-08-06T04:58:29;17.10;99.90
7002;DHT22;3541;53.230;10.518;2023-08-06T05:00:56;17.10;99.90
7002;DHT22;3541;53.230;10.518;2023-08-06T05:03:24;17.10;99.90
7002;DHT22;3541;53.230;10.518;2023-08-06T05:05:51;17.10;99.90
7002;DHT22;3541;53.230;10.518;2023-08-06T05:08:17;17.10;99.90
7002;DHT22;3541;53.230;10.518;2023-08-06T05:10:44;17.10;99.90
7002;DHT22;3541;53.230;10.518;2023-08-06T05:13:11;17.10;99.90
7002;DHT22;3541;53.230;10.518;2023-08-06T05:15:39;17.10;99.90
7002;DHT22;3541;53.230;10.518;2023-08-06T05:18:07;17.10;99.90
7002;DHT22;3541;53.230;10.518;2023-08-06T05:20:37;17.10;99.90
7002;DHT22;3541;53.230;10.518;2023-08-06T05:23:04;17.10;99.90
7002;DHT22;3541;53.230;10.518;2023-08-06T05:25:30;17.20;99.90
7002;DHT22;3541;53.230;10.518;2023-08-06T05:27:57;17.20;99.90
7002;DHT22;3541;53.230;10.518;2023-08-06T05:30:23;17.20;99.90
7002;DHT22;3541;53.230;10.518;2023-08-06T05:32:50;17.20;99.90
7002;DHT22;3541;53.230;10.518;2023-08-06T05:35:16;17.20;99.90
7002;DHT22;3541;53.230;10.518;2023-08-06T05:37:45;17.20;99.90
7002;DHT22;3541;53.230;10.518;2023-08-06T05:40:12;17.20;99.90
7002;DHT22;3541;53.230;10.518;2023-08-06T05:42:39;17.20;99.90
7002;DHT22;3541;53.230;10.518;2023-08-06T05:45:06;17.20;99.90
7002;DHT22;3541;53.230;10.518;2023-08-06T05:47:33;17.20;99.90
7002;DHT22;3541;53.230;10.518;2023-08-06T05:49:59;17.20;99.90
7002;DHT22;3541;53.230;10.518;2023-08-06T05:52:26;17.20;99.90
7002;DHT22;3541;53.230;10.518;2023-08-06T05:54:54;17.30;99.90
7002;DHT22;3541;53.230;10.518;2023-08-06T05:57:21;17.30;99.90
7002;DHT22;3541;53.230;10.518;2023-08-06T05:59:47;17.30;99.90
7002;DHT22;3541;53.230;10.518;2023-08-06T06:02:14;17.20;99.90
7002;DHT22;3541;53.230;10.518;2023-08-06T06:04:41;17.20;99.90
7002;DHT22;3541;53.230;10.518;2023-08-06T06:07:08;17.20;99.90
7002;DHT22;3541;53.230;10.518;2023-08-06T06:09:34;17.20;99.90
7002;DHT22;3541;53.230;10.518;2023-08-06T06:12:03;17.30;99.90
7002;DHT22;3541;53.230;10.518;2023-08-06T06:14:29;17.20;99.90
7002;DHT22;3541;53.230;10.518;2023-08-06T06:16:56;17.20;99.90
7002;DHT22;3541;53.230;10.518;2023-08-06T06:19:22;17.20;99.90
7002;DHT22;3541;53.230;10.518;2023-08-06T06:21:49;17.30;99.90
7002;DHT22;3541;53.230;10.518;2023-08-06T06:24:15;17.20;99.90
7002;DHT22;3541;53.230;10.518;2023-08-06T06:26:42;17.20;99.90
7002;DHT22;3541;53.230;10.518;2023-08-06T06:29:10;17.20;99.90
7002;DHT22;3541;53.230;10.518;2023-08-06T06:31:36;17.20;99.90
7002;DHT22;3541;53.230;10.518;2023-08-06T06:34:03;17.20;99.90
7002;DHT22;3541;53.230;10.518;2023-08-06T06:36:30;17.20;99.90
7002;DHT22;3541;53.230;10.518;2023-08-06T06:38:56;17.30;99.90
7002;DHT22;3541;53.230;10.518;2023-08-06T06:41:23;17.30;99.90
7002;DHT22;3541;53.230;10.518;2023-08-06T06:43:51;17.20;99.90
7002;DHT22;3541;53.230;10.518;2023-08-06T06:46:19;17.30;99.90
7002;DHT22;3541;53.230;10.518;2023-08-06T06:48:46;17.20;99.90
7002;DHT22;3541;53.230;10.518;2023-08-06T06:51:12;17.20;99.90
7002;DHT22;3541;53.230;10.518;2023-08-06T06:53:39;17.20;99.90
7002;DHT22;3541;53.230;10.518;2023-08-06T06:56:06;17.20;99.90
7002;DHT22;3541;53.230;10.518;2023-08-06T06:58:33;17.20;99.90
7002;DHT22;3541;53.230;10.518;2023-08-06T07:00:59;17.20;99.90
7002;DHT22;3541;53.230;10.518;2023-08-06T07:03:27;17.30;99.90
7002;DHT22;3541;53.230;10.518;2023-08-06T07:05:57;17.30;99.90
7002;DHT22;3541;53.230;10.518;2023-08-06T07:08:24;17.30;99.90
7002;DHT22;3541;53.230;10.518;2023-08-06T07:10:59;17.30;99.90
7002;DHT22;3541;53.230;10.518;2023-08-06T07:13:26;17.40;99.90
7002;DHT22;3541;53.230;10.518;2023-08-06T07:15:54;17.40;99.90
7002;DHT22;3541;53.230;10.518;2023-08-06T07:18:20;17.40;99.90
7002;DHT22;3541;53.230;10.518;2023-08-06T07:20:49;17.40;99.90
7002;DHT22;3541;53.230;10.518;2023-08-06T07:23:16;17.40;99.90
7002;DHT22;3541;53.230;10.518;2023-08-06T07:25:42;17.50;99.90
7002;DHT22;3541;53.230;10.518;2023-08-06T07:28:10;17.40;99.90
7002;DHT22;3541;53.230;10.518;2023-08-06T07:30:38;17.50;99.90
7002;DHT22;3541;53.230;10.518;2023-08-06T07:33:05;17.40;99.90
7002;DHT22;3541;53.230;10.518;2023-08-06T07:35:31;17.50;99.90
7002;DHT22;3541;53.230;10.518;2023-08-06T07:37:59;17.50;99.90
7002;DHT22;3541;53.230;10.518;2023-08-06T07:40:26;17.40;99.90
7002;DHT22;3541;53.230;10.518;2023-08-06T07:42:53;17.40;99.90
7002;DHT22;3541;53.230;10.518;2023-08-06T07:45:19;17.50;99.90
7002;DHT22;3541;53.230;10.518;2023-08-06T07:47:46;17.50;99.90
7002;DHT22;3541;53.230;10.518;2023-08-06T07:50:13;17.50;99.90
7002;DHT22;3541;53.230;10.518;2023-08-06T07:52:40;17.50;99.90
7002;DHT22;3541;53.230;10.518;2023-08-06T07:55:08;17.40;99.90
7002;DHT22;3541;53.230;10.518;2023-08-06T07:57:34;17.40;99.90
7002;DHT22;3541;53.230;10.518;2023-08-06T08:00:01;17.50;99.90
7002;DHT22;3541;53.230;10.518;2023-08-06T08:02:28;17.50;99.90
7002;DHT22;3541;53.230;10.518;2023-08-06T08:04:55;17.50;99.90
7002;DHT22;3541;53.230;10.518;2023-08-06T08:07:22;17.50;99.90
7002;DHT22;3541;53.230;10.518;2023-08-06T08:09:48;17.50;99.90
7002;DHT22;3541;53.230;10.518;2023-08-06T08:12:16;17.40;99.90
7002;DHT22;3541;53.230;10.518;2023-08-06T08:14:43;17.40;99.90
7002;DHT22;3541;53.230;10.518;2023-08-06T08:17:11;17.40;99.90
7002;DHT22;3541;53.230;10.518;2023-08-06T08:19:37;17.40;99.90
7002;DHT22;3541;53.230;10.518;2023-08-06T08:22:04;17.40;99.90
7002;DHT22;3541;53.230;10.518;2023-08-06T08:24:30;17.40;99.90
7002;DHT22;3541;53.230;10.518;2023-08-06T08:26:57;17.40;99.90
7002;DHT22;3541;53.230;10.518;2023-08-06T08:29:25;17.30;99.90
7002;DHT22;3541;53.230;10.518;2023-08-06T08:31:51;17.30;99.90
7002;DHT22;3541;53.230;10.518;2023-08-06T08:34:18;17.30;99.90
7002;DHT22;3541;53.230;10.518;2023-08-06T08:36:45;17.40;99.90
7002;DHT22;3541;53.230;10.518;2023-08-06T08:39:12;17.40;99.90
7002;DHT22;3541;53.230;10.518;2023-08-06T08:41:39;17.40;99.90
7002;DHT22;3541;53.230;10.518;2023-08-06T08:44:09;17.50;99.90
7002;DHT22;3541;53.230;10.518;2023-08-06T08:46:38;17.50;99.90
7002;DHT22;3541;53.230;10.518;2023-08-06T08:49:06;17.60;99.90
7002;DHT22;3541;53.230;10.518;2023-08-06T08:51:33;17.50;99.90
7002;DHT22;3541;53.230;10.518;2023-08-06T08:54:02;17.60;99.90
7002;DHT22;3541;53.230;10.518;2023-08-06T08:56:30;17.60;99.90
7002;DHT22;3541;53.230;10.518;2023-08-06T08:58:57;17.70;99.90
7002;DHT22;3541;53.230;10.518;2023-08-06T09:01:24;17.70;99.90
7002;DHT22;3541;53.230;10.518;2023-08-06T09:03:53;17.70;99.90
7002;DHT22;3541;53.230;10.518;2023-08-06T09:06:20;17.70;99.90
7002;DHT22;3541;53.230;10.518;2023-08-06T09:08:51;17.80;99.90
7002;DHT22;3541;53.230;10.518;2023-08-06T09:11:21;17.80;99.90
7002;DHT22;3541;53.230;10.518;2023-08-06T09:13:48;17.70;99.90
7002;DHT22;3541;53.230;10.518;2023-08-06T09:16:14;17.80;99.90
7002;DHT22;3541;53.230;10.518;2023-08-06T09:18:41;17.80;99.90
7002;DHT22;3541;53.230;10.518;2023-08-06T09:21:14;17.80;99.90
7002;DHT22;3541;53.230;10.518;2023-08-06T09:23:41;17.80;99.90
7002;DHT22;3541;53.230;10.518;2023-08-06T09:26:11;17.90;99.90
7002;DHT22;3541;53.230;10.518;2023-08-06T09:28:38;17.90;99.90
7002;DHT22;3541;53.230;10.518;2023-08-06T09:31:07;17.90;99.90
7002;DHT22;3541;53.230;10.518;2023-08-06T09:33:36;17.90;99.90
7002;DHT22;3541;53.230;10.518;2023-08-06T09:36:07;17.80;99.90
7002;DHT22;3541;53.230;10.518;2023-08-06T09:38:39;17.90;99.90
7002;DHT22;3541;53.230;10.518;2023-08-06T09:41:06;17.90;99.90
7002;DHT22;3541;53.230;10.518;2023-08-06T09:43:40;17.90;99.90
7002;DHT22;3541;53.230;10.518;2023-08-06T09:46:11;17.90;99.90
7002;DHT22;3541;53.230;10.518;2023-08-06T09:48:39;17.90;99.90
7002;DHT22;3541;53.230;10.518;2023-08-06T09:51:08;18.00;99.90
7002;DHT22;3541;53.230;10.518;2023-08-06T09:53:36;18.00;99.90
7002;DHT22;3541;53.230;10.518;2023-08-06T09:56:04;18.00;99.90
7002;DHT22;3541;53.230;10.518;2023-08-06T09:58:32;18.00;99.90
7002;DHT22;3541;53.230;10.518;2023-08-06T10:00:59;18.00;99.90
7002;DHT22;3541;53.230;10.518;2023-08-06T10:03:27;18.00;99.90
7002;DHT22;3541;53.230;10.518;2023-08-06T10:05:55;18.00;99.90
7002;DHT22;3541;53.230;10.518;2023-08-06T10:08:22;18.00;99.90
7002;DHT22;3541;53.230;10.518;2023-08-06T10:10:49;17.90;99.90
7002;DHT22;3541;53.230;10.518;2023-08-06T10:13:17;17.90;99.90
7002;DHT22;3541;53.230;10.518;2023-08-06T10:15:45;17.90;99.90
7002;DHT22;3541;53.230;10.518;2023-08-06T10:18:12;17.90;99.90
7002;DHT22;3541;53.230;10.518;2023-08-06T10:20:43;17.90;99.90
7002;DHT22;3541;53.230;10.518;2023-08-06T10:23:10;18.00;99.90
7002;DHT22;3541;53.230;10.518;2023-08-06T10:25:41;18.10;99.90
7002;DHT22;3541;53.230;10.518;2023-08-06T10:28:09;18.10;99.90
7002;DHT22;3541;53.230;10.518;2023-08-06T10:30:47;18.00;99.90
7002;DHT22;3541;53.230;10.518;2023-08-06T10:33:15;18.00;99.90
7002;DHT22;3541;53.230;10.518;2023-08-06T10:35:43;18.10;99.90
7002;DHT22;3541;53.230;10.518;2023-08-06T10:38:11;18.10;99.90
7002;DHT22;3541;53.230;10.518;2023-08-06T10:40:40;18.10;99.90
7002;DHT22;3541;53.230;10.518;2023-08-06T10:43:07;18.20;99.90
7002;DHT22;3541;53.230;10.518;2023-08-06T10:45:36;18.20;99.90
7002;DHT22;3541;53.230;10.518;2023-08-06T10:48:04;18.30;99.90
7002;DHT22;3541;53.230;10.518;2023-08-06T10:50:32;18.30;99.90
7002;DHT22;3541;53.230;10.518;2023-08-06T10:53:04;18.20;99.90
7002;DHT22;3541;53.230;10.518;2023-08-06T10:55:31;18.30;99.90
7002;DHT22;3541;53.230;10.518;2023-08-06T10:57:58;18.30;99.90
7002;DHT22;3541;53.230;10.518;2023-08-06T11:00:24;18.40;99.90
7002;DHT22;3541;53.230;10.518;2023-08-06T11:02:52;18.40;99.90
7002;DHT22;3541;53.230;10.518;2023-08-06T11:05:20;18.50;99.90
7002;DHT22;3541;53.230;10.518;2023-08-06T11:07:47;18.50;99.90
7002;DHT22;3541;53.230;10.518;2023-08-06T11:10:15;18.60;99.90
7002;DHT22;3541;53.230;10.518;2023-08-06T11:12:41;18.60;99.90
7002;DHT22;3541;53.230;10.518;2023-08-06T11:15:09;18.60;99.90
7002;DHT22;3541;53.230;10.518;2023-08-06T11:17:37;18.60;99.90
7002;DHT22;3541;53.230;10.518;2023-08-06T11:20:06;18.60;99.90
7002;DHT22;3541;53.230;10.518;2023-08-06T11:22:36;18.60;99.90
7002;DHT22;3541;53.230;10.518;2023-08-06T11:25:02;18.60;99.90
7002;DHT22;3541;53.230;10.518;2023-08-06T11:27:29;18.60;99.90
7002;DHT22;3541;53.230;10.518;2023-08-06T11:29:56;18.60;99.90
7002;DHT22;3541;53.230;10.518;2023-08-06T11:32:23;18.50;99.90
7002;DHT22;3541;53.230;10.518;2023-08-06T11:34:50;18.50;99.90
7002;DHT22;3541;53.230;10.518;2023-08-06T11:37:20;18.40;99.90
7002;DHT22;3541;53.230;10.518;2023-08-06T11:39:49;18.50;99.90
7002;DHT22;3541;53.230;10.518;2023-08-06T11:42:16;18.60;99.90
7002;DHT22;3541;53.230;10.518;2023-08-06T11:44:42;18.60;99.90
7002;DHT22;3541;53.230;10.518;2023-08-06T11:47:13;18.60;99.90
7002;DHT22;3541;53.230;10.518;2023-08-06T11:49:41;18.40;99.90
7002;DHT22;3541;53.230;10.518;2023-08-06T11:52:17;18.40;99.90
7002;DHT22;3541;53.230;10.518;2023-08-06T11:54:46;18.40;99.90
7002;DHT22;3541;53.230;10.518;2023-08-06T11:57:15;18.50;99.90
7002;DHT22;3541;53.230;10.518;2023-08-06T11:59:42;18.60;99.90
7002;DHT22;3541;53.230;10.518;2023-08-06T12:02:09;18.60;99.90
7002;DHT22;3541;53.230;10.518;2023-08-06T12:05:02;18.70;99.90
7002;DHT22;3541;53.230;10.518;2023-08-06T12:07:30;18.70;99.90
7002;DHT22;3541;53.230;10.518;2023-08-06T12:09:58;18.70;99.90
7002;DHT22;3541;53.230;10.518;2023-08-06T12:12:26;18.70;99.90
7002;DHT22;3541;53.230;10.518;2023-08-06T12:14:52;18.80;99.90
7002;DHT22;3541;53.230;10.518;2023-08-06T12:17:19;18.70;99.90
7002;DHT22;3541;53.230;10.518;2023-08-06T12:19:46;18.70;99.90
7002;DHT22;3541;53.230;10.518;2023-08-06T12:22:13;18.80;99.90
7002;DHT22;3541;53.230;10.518;2023-08-06T12:24:41;18.90;99.90
7002;DHT22;3541;53.230;10.518;2023-08-06T12:27:07;18.90;99.90
7002;DHT22;3541;53.230;10.518;2023-08-06T12:29:35;18.90;99.90
7002;DHT22;3541;53.230;10.518;2023-08-06T12:32:03;19.00;99.90
7002;DHT22;3541;53.230;10.518;2023-08-06T12:34:30;18.90;99.90
7002;DHT22;3541;53.230;10.518;2023-08-06T12:36:56;19.00;99.90
7002;DHT22;3541;53.230;10.518;2023-08-06T12:39:23;19.10;99.90
7002;DHT22;3541;53.230;10.518;2023-08-06T12:41:49;19.00;99.90
7002;DHT22;3541;53.230;10.518;2023-08-06T12:44:16;19.00;99.90
7002;DHT22;3541;53.230;10.518;2023-08-06T12:46:44;18.90;99.90
7002;DHT22;3541;53.230;10.518;2023-08-06T12:49:11;19.00;99.90
7002;DHT22;3541;53.230;10.518;2023-08-06T12:51:37;19.10;99.90
7002;DHT22;3541;53.230;10.518;2023-08-06T12:54:04;19.30;99.90
7002;DHT22;3541;53.230;10.518;2023-08-06T12:56:30;19.30;99.90
7002;DHT22;3541;53.230;10.518;2023-08-06T12:58:57;19.30;99.90
7002;DHT22;3541;53.230;10.518;2023-08-06T13:01:23;19.20;99.90
7002;DHT22;3541;53.230;10.518;2023-08-06T13:03:51;19.20;99.90
7002;DHT22;3541;53.230;10.518;2023-08-06T13:06:18;19.10;99.90
7002;DHT22;3541;53.230;10.518;2023-08-06T13:08:44;19.10;99.90
7002;DHT22;3541;53.230;10.518;2023-08-06T13:11:11;19.20;99.90
7002;DHT22;3541;53.230;10.518;2023-08-06T13:13:38;19.20;99.90
7002;DHT22;3541;53.230;10.518;2023-08-06T13:16:04;19.10;99.90
7002;DHT22;3541;53.230;10.518;2023-08-06T13:18:31;19.10;99.90
7002;DHT22;3541;53.230;10.518;2023-08-06T13:20:59;19.10;99.90
7002;DHT22;3541;53.230;10.518;2023-08-06T13:23:26;19.10;99.90
7002;DHT22;3541;53.230;10.518;2023-08-06T13:25:53;19.20;99.90
7002;DHT22;3541;53.230;10.518;2023-08-06T13:28:19;19.20;99.90
7002;DHT22;3541;53.230;10.518;2023-08-06T13:30:46;19.10;99.90
7002;DHT22;3541;53.230;10.518;2023-08-06T13:33:13;19.00;99.90
7002;DHT22;3541;53.230;10.518;2023-08-06T13:35:39;19.00;99.90
7002;DHT22;3541;53.230;10.518;2023-08-06T13:38:07;18.90;99.90
7002;DHT22;3541;53.230;10.518;2023-08-06T13:40:35;18.90;99.90
7002;DHT22;3541;53.230;10.518;2023-08-06T13:43:01;19.00;99.90
7002;DHT22;3541;53.230;10.518;2023-08-06T13:45:28;19.00;99.90
7002;DHT22;3541;53.230;10.518;2023-08-06T13:47:56;19.00;99.90
7002;DHT22;3541;53.230;10.518;2023-08-06T13:50:23;19.00;99.90
7002;DHT22;3541;53.230;10.518;2023-08-06T13:52:51;19.00;99.90
7002;DHT22;3541;53.230;10.518;2023-08-06T13:55:19;19.00;99.90
7002;DHT22;3541;53.230;10.518;2023-08-06T13:57:46;18.90;99.90
7002;DHT22;3541;53.230;10.518;2023-08-06T14:00:13;18.90;99.90
7002;DHT22;3541;53.230;10.518;2023-08-06T14:02:41;18.90;99.90
7002;DHT22;3541;53.230;10.518;2023-08-06T14:05:09;18.90;99.90
7002;DHT22;3541;53.230;10.518;2023-08-06T14:07:36;18.90;99.90
7002;DHT22;3541;53.230;10.518;2023-08-06T14:10:03;18.90;99.90
7002;DHT22;3541;53.230;10.518;2023-08-06T14:12:31;18.90;99.90
7002;DHT22;3541;53.230;10.518;2023-08-06T14:14:58;18.90;99.90
7002;DHT22;3541;53.230;10.518;2023-08-06T14:17:24;18.90;99.90
7002;DHT22;3541;53.230;10.518;2023-08-06T14:19:51;19.00;99.90
7002;DHT22;3541;53.230;10.518;2023-08-06T14:22:17;19.00;99.90
7002;DHT22;3541;53.230;10.518;2023-08-06T14:24:44;19.00;99.90
7002;DHT22;3541;53.230;10.518;2023-08-06T14:27:12;19.10;99.90
7002;DHT22;3541;53.230;10.518;2023-08-06T14:29:40;19.10;99.90
7002;DHT22;3541;53.230;10.518;2023-08-06T14:32:07;19.10;99.90
7002;DHT22;3541;53.230;10.518;2023-08-06T14:34:33;19.10;99.90
7002;DHT22;3541;53.230;10.518;2023-08-06T14:37:00;19.20;99.90
7002;DHT22;3541;53.230;10.518;2023-08-06T14:39:27;19.30;99.90
7002;DHT22;3541;53.230;10.518;2023-08-06T14:41:53;19.40;99.90
7002;DHT22;3541;53.230;10.518;2023-08-06T14:44:20;19.40;99.90
7002;DHT22;3541;53.230;10.518;2023-08-06T14:46:48;19.50;99.90
7002;DHT22;3541;53.230;10.518;2023-08-06T14:49:14;19.50;99.90
7002;DHT22;3541;53.230;10.518;2023-08-06T14:51:41;19.60;99.90
7002;DHT22;3541;53.230;10.518;2023-08-06T14:54:07;19.60;99.90
7002;DHT22;3541;53.230;10.518;2023-08-06T14:56:34;19.60;99.90
7002;DHT22;3541;53.230;10.518;2023-08-06T14:59:01;19.60;99.90
7002;DHT22;3541;53.230;10.518;2023-08-06T15:01:28;19.70;99.90
7002;DHT22;3541;53.230;10.518;2023-08-06T15:03:56;19.60;99.90
7002;DHT22;3541;53.230;10.518;2023-08-06T15:06:22;19.60;99.90
7002;DHT22;3541;53.230;10.518;2023-08-06T15:08:49;19.50;99.90
7002;DHT22;3541;53.230;10.518;2023-08-06T15:11:15;19.60;99.90
7002;DHT22;3541;53.230;10.518;2023-08-06T15:13:42;19.60;99.90
7002;DHT22;3541;53.230;10.518;2023-08-06T15:16:09;19.60;99.90
7002;DHT22;3541;53.230;10.518;2023-08-06T15:18:35;19.60;99.90
7002;DHT22;3541;53.230;10.518;2023-08-06T15:21:03;19.50;99.90
7002;DHT22;3541;53.230;10.518;2023-08-06T15:23:30;19.50;99.90
7002;DHT22;3541;53.230;10.518;2023-08-06T15:25:56;19.40;99.90
7002;DHT22;3541;53.230;10.518;2023-08-06T15:28:23;19.30;99.90
7002;DHT22;3541;53.230;10.518;2023-08-06T15:30:50;19.30;99.90
7002;DHT22;3541;53.230;10.518;2023-08-06T15:33:18;19.20;99.90
7002;DHT22;3541;53.230;10.518;2023-08-06T15:35:44;19.20;99.90
7002;DHT22;3541;53.230;10.518;2023-08-06T15:38:12;19.30;99.90
7002;DHT22;3541;53.230;10.518;2023-08-06T15:40:39;19.20;99.90
7002;DHT22;3541;53.230;10.518;2023-08-06T15:43:06;19.20;99.90
7002;DHT22;3541;53.230;10.518;2023-08-06T15:45:32;19.20;99.90